createdAt,value
2023-03-07T00:02:26.573Z,39.97
2023-03-07T00:05:28.248Z,41.25
2023-03-07T00:08:30.075Z,32.08
2023-03-07T00:11:31.626Z,38.08
2023-03-07T00:14:33.475Z,31.52
2023-03-07T00:17:38.944Z,35.05
2023-03-07T00:20:40.471Z,30.27
2023-03-07T00:23:43.768Z,33.97
2023-03-07T00:26:45.607Z,28.30
2023-03-07T00:29:48.677Z,25.40
2023-03-07T00:32:50.426Z,25.23
2023-03-07T00:36:00.457Z,29.60
2023-03-07T00:39:02.128Z,28.20
2023-03-07T00:42:03.804Z,25.15
2023-03-07T00:45:05.790Z,26.08
2023-03-07T00:48:07.443Z,25.50
2023-03-07T00:51:11.135Z,23.52
2023-03-07T00:54:12.694Z,24.33
2023-03-07T00:57:14.223Z,23.33
2023-03-07T01:00:15.833Z,25.50
2023-03-07T01:03:17.800Z,25.98
2023-03-07T01:06:21.290Z,24.40
2023-03-07T01:09:23.649Z,27.30
2023-03-07T01:12:26.720Z,25.42
2023-03-07T01:15:28.259Z,25.02
2023-03-07T01:18:29.798Z,25.55
2023-03-07T01:21:37.693Z,24.30
2023-03-07T01:24:39.505Z,27.80
2023-03-07T01:27:41.105Z,24.55
2023-03-07T01:30:42.673Z,32.10
2023-03-07T01:33:44.275Z,30.48
2023-03-07T01:36:45.871Z,27.45
2023-03-07T01:44:12.183Z,33.40
2023-03-07T01:47:13.730Z,27.27
2023-03-07T01:50:17.625Z,29.52
2023-03-07T01:53:19.385Z,25.60
2023-03-07T01:56:22.315Z,27.55
2023-03-07T01:59:31.456Z,26.70
2023-03-07T02:02:34.836Z,23.27
2023-03-07T02:05:59.485Z,26.15
2023-03-07T02:09:03.586Z,21.60
2023-03-07T02:12:05.313Z,19.30
2023-03-07T02:15:09.550Z,17.23
2023-03-07T02:18:16.053Z,12.98
2023-03-07T02:21:54.657Z,14.77
2023-03-07T02:25:17.284Z,15.88
2023-03-07T02:28:19.129Z,21.17
2023-03-07T02:31:21.234Z,26.02
2023-03-07T02:34:28.372Z,23.27
2023-03-07T02:37:33.743Z,21.15
2023-03-07T02:40:35.631Z,15.68
2023-03-07T02:43:37.256Z,12.77
2023-03-07T02:46:38.885Z,9.68
2023-03-07T02:49:40.610Z,8.77
2023-03-07T02:52:42.892Z,10.65
2023-03-07T02:55:44.530Z,14.65
2023-03-07T02:58:46.067Z,10.20
2023-03-07T03:01:47.704Z,10.07
2023-03-07T03:04:49.325Z,13.43
2023-03-07T03:07:51.166Z,10.70
2023-03-07T03:10:54.347Z,14.70
2023-03-07T03:13:55.910Z,15.18
2023-03-07T03:16:57.465Z,12.00
2023-03-07T03:19:59.125Z,14.10
2023-03-07T03:23:00.675Z,14.23
2023-03-07T03:26:07.485Z,15.70
2023-03-07T03:29:09.717Z,18.85
2023-03-07T03:32:11.481Z,19.38
2023-03-07T03:35:13.210Z,22.40
2023-03-07T03:38:14.752Z,16.83
2023-03-07T03:41:16.292Z,13.93
2023-03-07T03:44:18.130Z,16.17
2023-03-07T03:47:19.702Z,16.15
2023-03-07T03:50:21.275Z,15.18
2023-03-07T03:53:22.911Z,17.70
2023-03-07T03:56:25.838Z,15.95
2023-03-07T03:59:27.929Z,15.30
2023-03-07T04:02:30.793Z,16.98
2023-03-07T04:05:35.390Z,18.73
2023-03-07T04:08:38.354Z,19.27
2023-03-07T04:11:39.954Z,18.20
2023-03-07T04:14:41.665Z,17.50
2023-03-07T04:17:43.239Z,15.95
2023-03-07T04:20:45.738Z,22.30
2023-03-07T04:23:49.504Z,21.73
2023-03-07T04:26:51.125Z,14.75
2023-03-07T04:29:52.645Z,12.70
2023-03-07T04:32:54.322Z,11.50
2023-03-07T04:35:55.894Z,11.13
2023-03-07T04:38:57.867Z,11.75
2023-03-07T04:45:23.845Z,14.70
2023-03-07T04:48:25.511Z,14.48
2023-03-07T04:51:27.201Z,16.77
2023-03-07T04:54:28.899Z,18.23
2023-03-07T04:57:30.661Z,19.58
2023-03-07T05:00:32.504Z,23.65
2023-03-07T05:03:34.952Z,20.45
2023-03-07T05:06:36.573Z,20.65
2023-03-07T05:09:38.150Z,22.00
2023-03-07T05:12:39.721Z,21.20
2023-03-07T05:15:41.346Z,21.40
2023-03-07T05:18:42.935Z,21.90
2023-03-07T05:21:44.580Z,20.17
2023-03-07T05:24:46.209Z,18.38
2023-03-07T05:27:48.456Z,21.08
2023-03-07T05:30:50.158Z,21.83
2023-03-07T05:33:51.812Z,21.20
2023-03-07T05:36:53.528Z,22.10
2023-03-07T05:39:55.111Z,21.45
2023-03-07T05:42:56.760Z,23.17
2023-03-07T05:45:58.400Z,25.80
2023-03-07T05:49:00.152Z,23.42
2023-03-07T05:52:01.787Z,23.75
2023-03-07T05:55:04.365Z,23.15
2023-03-07T05:58:06.061Z,27.50
2023-03-07T06:01:07.580Z,25.08
2023-03-07T06:04:09.744Z,24.33
2023-03-07T06:07:11.328Z,25.60
2023-03-07T06:10:13.654Z,25.63
2023-03-07T06:13:18.401Z,21.58
2023-03-07T06:16:20.029Z,22.15
2023-03-07T06:19:21.952Z,22.20
2023-03-07T06:22:23.836Z,22.13
2023-03-07T06:25:25.361Z,22.60
2023-03-07T06:28:27.767Z,23.23
2023-03-07T06:31:29.383Z,25.00
2023-03-07T06:34:30.980Z,24.42
2023-03-07T06:37:32.606Z,24.58
2023-03-07T06:40:34.232Z,26.30
2023-03-07T06:43:35.859Z,26.00
2023-03-07T06:46:37.554Z,31.02
2023-03-07T06:49:39.105Z,25.60
2023-03-07T06:52:40.951Z,30.50
2023-03-07T06:55:42.523Z,27.63
2023-03-07T06:58:44.183Z,28.70
2023-03-07T07:01:45.833Z,32.28
2023-03-07T07:04:47.539Z,27.00
2023-03-07T07:07:49.135Z,28.42
2023-03-07T07:10:50.895Z,24.73
2023-03-07T07:13:52.559Z,29.05
2023-03-07T07:16:54.109Z,27.95
2023-03-07T07:19:55.701Z,30.13
2023-03-07T07:22:57.272Z,27.30
2023-03-07T07:25:58.969Z,29.45
2023-03-07T07:29:00.612Z,30.10
2023-03-07T07:32:02.339Z,27.52
2023-03-07T07:35:04.387Z,28.45
2023-03-07T07:38:05.976Z,28.92
2023-03-07T07:41:07.533Z,28.45
2023-03-07T07:44:09.099Z,26.30
2023-03-07T07:47:10.704Z,27.17
2023-03-07T07:50:14.091Z,27.48
2023-03-07T07:53:18.801Z,26.73
2023-03-07T07:56:20.388Z,36.80
2023-03-07T07:59:21.935Z,33.10
2023-03-07T08:02:23.891Z,28.27
2023-03-07T08:05:25.623Z,30.45
2023-03-07T08:08:27.188Z,34.80
2023-03-07T08:11:28.850Z,29.88
2023-03-07T08:14:30.489Z,32.95
2023-03-07T08:17:32.057Z,31.77
2023-03-07T08:20:33.832Z,26.75
2023-03-07T08:23:36.918Z,28.10
2023-03-07T08:26:38.627Z,28.48
2023-03-07T08:29:40.185Z,24.63
2023-03-07T08:32:41.835Z,29.60
2023-03-07T08:35:43.437Z,26.05
2023-03-07T08:38:54.167Z,25.80
2023-03-07T08:41:56.772Z,28.45
2023-03-07T08:44:58.392Z,30.40
2023-03-07T08:48:00.004Z,27.88
2023-03-07T08:51:10.158Z,27.20
2023-03-07T08:54:11.762Z,32.20
2023-03-07T08:57:13.295Z,35.53
2023-03-07T09:00:15.327Z,32.78
2023-03-07T09:03:16.912Z,39.10
2023-03-07T09:06:20.760Z,39.70
2023-03-07T09:09:22.652Z,36.08
2023-03-07T09:12:25.068Z,33.55
2023-03-07T09:15:27.133Z,33.40
2023-03-07T09:18:30.278Z,28.73
2023-03-07T09:21:33.269Z,29.88
2023-03-07T09:24:34.805Z,28.05
2023-03-07T09:27:36.625Z,34.28
2023-03-07T09:30:38.394Z,30.92
2023-03-07T09:33:41.202Z,35.55
2023-03-07T09:36:42.811Z,35.05
2023-03-07T09:39:44.871Z,33.85
2023-03-07T09:42:54.058Z,31.25
2023-03-07T09:46:09.496Z,28.27
2023-03-07T09:49:29.524Z,35.88
2023-03-07T09:52:37.536Z,32.05
2023-03-07T09:55:39.566Z,27.10
2023-03-07T09:58:45.992Z,25.85
2023-03-07T10:01:50.062Z,25.45
2023-03-07T10:05:01.140Z,21.20
2023-03-07T10:08:03.588Z,16.85
2023-03-07T10:11:42.900Z,16.15
2023-03-07T10:14:54.395Z,24.08
2023-03-07T10:18:19.198Z,25.75
2023-03-07T10:21:39.109Z,22.40
2023-03-07T10:25:09.773Z,15.45
2023-03-07T10:28:31.318Z,16.75
2023-03-07T10:31:36.183Z,14.95
2023-03-07T10:34:39.563Z,18.10
2023-03-07T10:37:50.353Z,12.93
2023-03-07T10:43:59.059Z,11.07
2023-03-07T10:47:00.906Z,11.57
2023-03-07T10:50:29.820Z,11.18
2023-03-07T10:53:36.378Z,10.30
2023-03-07T10:56:38.165Z,14.10
2023-03-07T10:59:45.594Z,10.25
2023-03-07T11:02:47.244Z,12.30
2023-03-07T11:05:48.974Z,14.15
2023-03-07T11:08:50.570Z,8.95
2023-03-07T11:12:00.618Z,10.98
2023-03-07T11:15:18.521Z,10.43
2023-03-07T11:18:38.788Z,9.45
2023-03-07T11:21:40.375Z,11.95
2023-03-07T11:24:49.933Z,13.25
2023-03-07T11:27:55.296Z,15.82
2023-03-07T11:31:04.845Z,31.73
2023-03-07T11:34:45.611Z,30.38
2023-03-07T11:38:13.180Z,32.88
2023-03-07T11:41:34.832Z,38.42
2023-03-07T11:45:03.482Z,50.65
2023-03-07T11:48:24.021Z,48.47
2023-03-07T11:51:45.842Z,43.35
2023-03-07T11:55:18.051Z,46.88
2023-03-07T11:58:35.802Z,42.63
2023-03-07T12:01:52.775Z,34.92
2023-03-07T12:05:09.530Z,30.95
2023-03-07T12:08:27.338Z,28.98
2023-03-07T12:11:45.842Z,32.35
2023-03-07T12:15:25.391Z,27.17
2023-03-07T12:18:37.908Z,23.38
2023-03-07T12:21:56.745Z,22.48
2023-03-07T12:25:20.781Z,19.75
2023-03-07T12:28:24.684Z,21.65
2023-03-07T12:31:36.824Z,15.75
2023-03-07T12:34:42.545Z,20.40
2023-03-07T12:38:08.814Z,19.60
2023-03-07T12:41:39.421Z,15.68
2023-03-07T12:45:03.725Z,16.88
2023-03-07T12:48:18.815Z,18.35
2023-03-07T12:51:26.900Z,16.08
2023-03-07T12:54:30.135Z,14.95
2023-03-07T12:57:40.316Z,17.40
2023-03-07T13:00:58.019Z,14.82
2023-03-07T13:04:21.476Z,14.45
2023-03-07T13:07:32.349Z,15.05
2023-03-07T13:10:34.850Z,15.68
2023-03-07T13:13:43.175Z,17.73
2023-03-07T13:16:46.423Z,17.52
2023-03-07T13:19:54.099Z,17.73
2023-03-07T13:22:58.513Z,16.75
2023-03-07T13:26:02.269Z,20.23
2023-03-07T13:29:04.284Z,18.40
2023-03-07T13:32:44.472Z,19.85
2023-03-07T13:35:53.765Z,20.27
2023-03-07T13:38:55.382Z,21.90
2023-03-07T13:41:57.164Z,19.33
2023-03-07T13:44:58.867Z,22.38
2023-03-07T13:48:00.468Z,32.38
2023-03-07T13:51:02.072Z,27.25
2023-03-07T13:54:05.997Z,25.85
2023-03-07T13:57:18.774Z,28.00
2023-03-07T14:00:34.060Z,26.17
2023-03-07T14:03:53.335Z,29.27
2023-03-07T14:07:21.199Z,26.35
2023-03-07T14:10:30.684Z,26.15
2023-03-07T14:14:22.616Z,24.23
2023-03-07T14:18:01.739Z,22.80
2023-03-07T14:21:20.075Z,26.10
2023-03-07T14:24:49.190Z,21.55
2023-03-07T14:28:00.959Z,19.25
2023-03-07T14:31:07.036Z,19.55
2023-03-07T14:34:25.236Z,20.70
2023-03-07T14:37:32.738Z,22.23
2023-03-07T14:41:11.101Z,18.92
2023-03-07T14:44:29.861Z,20.75
2023-03-07T14:47:47.087Z,19.73
2023-03-07T14:50:48.686Z,17.08
2023-03-07T14:53:50.377Z,16.05
2023-03-07T14:56:53.925Z,13.98
2023-03-07T15:00:11.307Z,14.63
2023-03-07T15:03:14.279Z,17.00
2023-03-07T15:06:20.041Z,15.05
2023-03-07T15:09:22.230Z,16.70
2023-03-07T15:12:27.713Z,19.42
2023-03-07T15:15:31.402Z,17.92
2023-03-07T15:18:40.887Z,18.13
2023-03-07T15:21:55.801Z,13.23
2023-03-07T15:24:57.843Z,17.58
2023-03-07T15:28:05.769Z,15.13
2023-03-07T15:31:08.959Z,12.43
2023-03-07T15:34:25.041Z,11.80
2023-03-07T15:37:29.525Z,12.70
2023-03-07T15:40:34.084Z,11.82
2023-03-07T15:43:35.852Z,17.92
2023-03-07T15:46:44.175Z,13.07
2023-03-07T15:49:54.330Z,14.32
2023-03-07T15:53:07.238Z,17.05
2023-03-07T15:56:36.058Z,18.48
2023-03-07T15:59:53.865Z,22.35
2023-03-07T16:03:16.409Z,21.98
2023-03-07T16:06:46.678Z,24.38
2023-03-07T16:09:48.457Z,23.90
2023-03-07T16:12:50.418Z,25.00
2023-03-07T16:16:00.942Z,25.30
2023-03-07T16:19:03.710Z,22.63
2023-03-07T16:22:09.701Z,26.63
2023-03-07T16:25:11.789Z,23.55
2023-03-07T16:28:13.916Z,22.48
2023-03-07T16:31:17.275Z,25.55
2023-03-07T16:34:21.384Z,26.00
2023-03-07T16:37:22.990Z,23.70
2023-03-07T16:40:26.114Z,22.92
2023-03-07T16:43:36.868Z,24.40
2023-03-07T16:49:40.143Z,15.63
2023-03-07T16:52:43.252Z,15.25
2023-03-07T16:55:45.760Z,11.13
2023-03-07T16:58:47.387Z,5.72
2023-03-07T17:01:51.619Z,5.75
2023-03-07T17:04:53.737Z,10.13
2023-03-07T17:07:56.930Z,10.27
2023-03-07T17:10:58.910Z,11.20
2023-03-07T17:14:04.864Z,21.95
2023-03-07T17:17:07.352Z,21.17
2023-03-07T17:20:14.241Z,11.85
2023-03-07T17:23:15.830Z,12.43
2023-03-07T17:26:33.023Z,11.88
2023-03-07T17:29:42.262Z,11.93
2023-03-07T17:32:43.837Z,14.48
2023-03-07T17:35:45.475Z,16.60
2023-03-07T17:38:47.825Z,11.60
2023-03-07T17:41:50.549Z,16.35
2023-03-07T17:44:52.156Z,13.05
2023-03-07T17:47:54.684Z,22.55
2023-03-07T17:50:56.230Z,20.17
2023-03-07T17:53:58.215Z,24.60
2023-03-07T17:56:59.956Z,40.75
2023-03-07T18:00:01.668Z,37.97
2023-03-07T18:03:03.915Z,36.65
2023-03-07T18:06:05.776Z,39.65
2023-03-07T18:09:07.355Z,35.80
2023-03-07T18:12:09.429Z,37.38
2023-03-07T18:15:16.908Z,30.17
2023-03-07T18:18:18.495Z,39.53
2023-03-07T18:21:22.195Z,36.05
2023-03-07T18:24:27.007Z,36.25
2023-03-07T18:27:28.571Z,36.53
2023-03-07T18:30:30.133Z,41.10
2023-03-07T18:33:32.614Z,38.63
2023-03-07T18:36:34.167Z,35.28
2023-03-07T18:39:36.121Z,35.03
2023-03-07T18:42:39.054Z,39.95
2023-03-07T18:45:44.497Z,38.05
2023-03-07T18:48:46.270Z,38.50
2023-03-07T18:51:48.426Z,35.47
2023-03-07T18:54:50.046Z,33.28
2023-03-07T18:57:51.674Z,33.70
2023-03-07T19:00:53.650Z,33.55
2023-03-07T19:03:57.477Z,34.83
2023-03-07T19:07:00.592Z,31.67
2023-03-07T19:10:02.481Z,29.13
2023-03-07T19:13:27.108Z,31.23
2023-03-07T19:16:29.000Z,30.10
2023-03-07T19:19:30.634Z,27.98
2023-03-07T19:22:33.353Z,28.73
2023-03-07T19:25:35.457Z,25.63
2023-03-07T19:28:37.158Z,25.80
2023-03-07T19:31:39.226Z,24.73
2023-03-07T19:34:40.838Z,28.77
2023-03-07T19:37:42.408Z,29.02
2023-03-07T19:40:48.019Z,30.67
2023-03-07T19:43:50.153Z,27.95
2023-03-07T19:46:51.766Z,28.42
2023-03-07T19:49:53.315Z,26.30
2023-03-07T19:52:57.317Z,27.95
2023-03-07T19:56:11.666Z,25.10
2023-03-07T19:59:13.299Z,27.90
2023-03-07T20:02:14.943Z,24.20
2023-03-07T20:05:16.810Z,25.20
2023-03-07T20:08:18.476Z,22.77
2023-03-07T20:11:27.581Z,20.50
2023-03-07T20:19:20.534Z,25.02
2023-03-07T20:30:44.726Z,30.52
2023-03-07T20:34:18.216Z,39.47
2023-03-07T20:45:21.752Z,43.90
2023-03-07T20:48:52.992Z,42.47
2023-03-07T20:53:01.906Z,41.88
2023-03-07T20:56:05.606Z,45.25
2023-03-07T20:59:09.150Z,41.05
2023-03-07T21:02:11.693Z,35.67
2023-03-07T21:05:13.656Z,38.75
2023-03-07T21:08:16.415Z,37.83
2023-03-07T21:11:20.339Z,38.47
2023-03-07T21:14:22.265Z,36.97
2023-03-07T21:17:24.005Z,35.42
2023-03-07T21:20:25.697Z,37.40
2023-03-07T21:23:27.947Z,33.22
2023-03-07T21:26:32.018Z,35.95
2023-03-07T21:29:33.675Z,34.85
2023-03-07T21:32:35.262Z,32.80
2023-03-07T21:35:40.162Z,33.63
2023-03-07T21:38:43.256Z,29.08
2023-03-07T21:41:44.999Z,42.47
2023-03-07T21:44:46.588Z,29.98
2023-03-07T21:47:53.102Z,34.97
2023-03-07T21:50:55.357Z,32.63
2023-03-07T21:53:56.971Z,28.42
2023-03-07T21:56:58.627Z,29.77
2023-03-07T22:00:00.182Z,28.65
2023-03-07T22:03:01.792Z,30.33
2023-03-07T22:06:08.516Z,33.40
2023-03-07T22:09:10.534Z,31.08
2023-03-07T22:12:12.086Z,29.88
2023-03-07T22:15:13.897Z,26.98
2023-03-07T22:18:17.418Z,28.45
2023-03-07T22:21:20.968Z,31.00
2023-03-07T22:24:22.589Z,28.45
2023-03-07T22:27:24.176Z,30.77
2023-03-07T22:30:25.755Z,25.30
2023-03-07T22:33:27.342Z,29.70
2023-03-07T22:36:29.030Z,29.52
2023-03-07T22:39:30.645Z,28.95
2023-03-07T22:42:32.242Z,27.98
2023-03-07T22:45:34.124Z,25.38
2023-03-07T22:48:36.192Z,26.73
2023-03-07T22:51:38.369Z,25.70
2023-03-07T22:54:41.199Z,28.35
2023-03-07T22:57:42.738Z,26.23
2023-03-07T23:00:44.370Z,30.38
2023-03-07T23:03:46.893Z,30.58
2023-03-07T23:06:48.569Z,26.88
2023-03-07T23:09:50.118Z,32.33
2023-03-07T23:12:51.842Z,27.77
2023-03-07T23:15:53.495Z,30.42
2023-03-07T23:18:57.410Z,31.17
2023-03-07T23:21:59.057Z,32.75
2023-03-07T23:25:00.594Z,32.13
2023-03-07T23:28:02.258Z,28.65
2023-03-07T23:31:04.184Z,28.83
2023-03-07T23:34:09.181Z,33.85
2023-03-07T23:37:10.734Z,31.90
2023-03-07T23:40:12.670Z,35.67
2023-03-07T23:43:14.497Z,32.60
2023-03-07T23:46:16.201Z,33.55
2023-03-07T23:49:17.774Z,34.63
2023-03-07T23:52:19.534Z,36.00
2023-03-07T23:55:22.346Z,36.83
2023-03-07T23:58:23.973Z,38.53
